sensor_id;sensor_type;location;lat;lon;timestamp;pressure;altitude;pressure_sealevel;temperature
80496;BMP180;69819;48.798;11.770;2023-07-30T00:00:21;97123.00;;;21.90
80496;BMP180;69819;48.798;11.770;2023-07-30T00:02:47;97137.00;;;21.90
80496;BMP180;69819;48.798;11.770;2023-07-30T00:05:13;97133.00;;;22.00
80496;BMP180;69819;48.798;11.770;2023-07-30T00:07:39;97137.00;;;22.00
80496;BMP180;69819;48.798;11.770;2023-07-30T00:10:06;97122.00;;;22.00
80496;BMP180;69819;48.798;11.770;2023-07-30T00:12:31;97117.00;;;22.00
80496;BMP180;69819;48.798;11.770;2023-07-30T00:14:57;97128.00;;;22.00
80496;BMP180;69819;48.798;11.770;2023-07-30T00:17:23;97121.00;;;22.00
80496;BMP180;69819;48.798;11.770;2023-07-30T00:19:49;97125.00;;;22.00
80496;BMP180;69819;48.798;11.770;2023-07-30T00:22:15;97129.00;;;22.00
80496;BMP180;69819;48.798;11.770;2023-07-30T00:24:41;97121.00;;;22.00
80496;BMP180;69819;48.798;11.770;2023-07-30T00:27:07;97129.00;;;22.00
80496;BMP180;69819;48.798;11.770;2023-07-30T00:29:33;97124.00;;;22.00
80496;BMP180;69819;48.798;11.770;2023-07-30T00:31:58;97123.00;;;21.90
80496;BMP180;69819;48.798;11.770;2023-07-30T00:34:24;97132.00;;;21.90
80496;BMP180;69819;48.798;11.770;2023-07-30T00:36:50;97117.00;;;21.90
80496;BMP180;69819;48.798;11.770;2023-07-30T00:39:16;97104.00;;;21.90
80496;BMP180;69819;48.798;11.770;2023-07-30T00:41:42;97124.00;;;21.90
80496;BMP180;69819;48.798;11.770;2023-07-30T00:44:08;97137.00;;;21.90
80496;BMP180;69819;48.798;11.770;2023-07-30T00:46:34;97135.00;;;21.90
80496;BMP180;69819;48.798;11.770;2023-07-30T00:49:01;97137.00;;;21.90
80496;BMP180;69819;48.798;11.770;2023-07-30T00:51:31;97147.00;;;21.90
80496;BMP180;69819;48.798;11.770;2023-07-30T00:53:57;97136.00;;;21.90
80496;BMP180;69819;48.798;11.770;2023-07-30T00:56:23;97140.00;;;21.90
80496;BMP180;69819;48.798;11.770;2023-07-30T00:58:49;97139.00;;;21.90
80496;BMP180;69819;48.798;11.770;2023-07-30T01:01:15;97151.00;;;21.90
80496;BMP180;69819;48.798;11.770;2023-07-30T01:03:41;97149.00;;;21.90
80496;BMP180;69819;48.798;11.770;2023-07-30T01:06:07;97143.00;;;22.00
80496;BMP180;69819;48.798;11.770;2023-07-30T01:08:33;97153.00;;;22.00
80496;BMP180;69819;48.798;11.770;2023-07-30T01:11:01;97126.00;;;22.00
80496;BMP180;69819;48.798;11.770;2023-07-30T01:13:29;97157.00;;;22.00
80496;BMP180;69819;48.798;11.770;2023-07-30T01:15:56;97146.00;;;22.00
80496;BMP180;69819;48.798;11.770;2023-07-30T01:18:22;97141.00;;;22.00
80496;BMP180;69819;48.798;11.770;2023-07-30T01:20:48;97116.00;;;22.00
80496;BMP180;69819;48.798;11.770;2023-07-30T01:23:14;97120.00;;;22.00
80496;BMP180;69819;48.798;11.770;2023-07-30T01:25:42;97139.00;;;22.00
80496;BMP180;69819;48.798;11.770;2023-07-30T01:28:12;97148.00;;;21.90
80496;BMP180;69819;48.798;11.770;2023-07-30T01:30:42;97129.00;;;22.00
80496;BMP180;69819;48.798;11.770;2023-07-30T01:33:11;97149.00;;;21.90
80496;BMP180;69819;48.798;11.770;2023-07-30T01:35:37;97133.00;;;22.00
80496;BMP180;69819;48.798;11.770;2023-07-30T01:38:04;97131.00;;;22.00
80496;BMP180;69819;48.798;11.770;2023-07-30T01:40:32;97140.00;;;21.90
80496;BMP180;69819;48.798;11.770;2023-07-30T01:42:59;97151.00;;;21.90
80496;BMP180;69819;48.798;11.770;2023-07-30T01:45:24;97118.00;;;21.90
80496;BMP180;69819;48.798;11.770;2023-07-30T01:47:50;97154.00;;;21.90
80496;BMP180;69819;48.798;11.770;2023-07-30T01:50:16;97147.00;;;21.90
80496;BMP180;69819;48.798;11.770;2023-07-30T01:52:42;97139.00;;;21.90
80496;BMP180;69819;48.798;11.770;2023-07-30T01:55:09;97151.00;;;21.90
80496;BMP180;69819;48.798;11.770;2023-07-30T01:57:34;97156.00;;;21.90
80496;BMP180;69819;48.798;11.770;2023-07-30T02:00:00;97155.00;;;21.90
80496;BMP180;69819;48.798;11.770;2023-07-30T02:02:26;97164.00;;;21.90
80496;BMP180;69819;48.798;11.770;2023-07-30T02:04:52;97167.00;;;21.90
80496;BMP180;69819;48.798;11.770;2023-07-30T02:07:18;97135.00;;;21.90
80496;BMP180;69819;48.798;11.770;2023-07-30T02:09:44;97165.00;;;21.90
80496;BMP180;69819;48.798;11.770;2023-07-30T02:12:10;97124.00;;;21.80
80496;BMP180;69819;48.798;11.770;2023-07-30T02:14:36;97157.00;;;21.80
80496;BMP180;69819;48.798;11.770;2023-07-30T02:24:14;97132.00;;;21.50
80496;BMP180;69819;48.798;11.770;2023-07-30T02:26:40;97121.00;;;21.50
80496;BMP180;69819;48.798;11.770;2023-07-30T02:29:06;97126.00;;;21.50
80496;BMP180;69819;48.798;11.770;2023-07-30T02:31:33;97126.00;;;21.50
80496;BMP180;69819;48.798;11.770;2023-07-30T02:33:59;97120.00;;;21.40
80496;BMP180;69819;48.798;11.770;2023-07-30T02:36:25;97072.00;;;21.40
80496;BMP180;69819;48.798;11.770;2023-07-30T02:38:51;97081.00;;;21.40
80496;BMP180;69819;48.798;11.770;2023-07-30T02:41:17;97110.00;;;21.30
80496;BMP180;69819;48.798;11.770;2023-07-30T02:43:43;97131.00;;;21.30
80496;BMP180;69819;48.798;11.770;2023-07-30T02:46:09;97147.00;;;21.20
80496;BMP180;69819;48.798;11.770;2023-07-30T02:48:35;97144.00;;;21.20
80496;BMP180;69819;48.798;11.770;2023-07-30T02:51:01;97155.00;;;21.10
80496;BMP180;69819;48.798;11.770;2023-07-30T02:53:27;97163.00;;;21.10
80496;BMP180;69819;48.798;11.770;2023-07-30T02:55:54;97157.00;;;21.00
80496;BMP180;69819;48.798;11.770;2023-07-30T02:58:20;97161.00;;;21.00
80496;BMP180;69819;48.798;11.770;2023-07-30T03:00:46;97159.00;;;20.90
80496;BMP180;69819;48.798;11.770;2023-07-30T03:03:12;97169.00;;;20.90
80496;BMP180;69819;48.798;11.770;2023-07-30T03:05:42;97173.00;;;20.80
80496;BMP180;69819;48.798;11.770;2023-07-30T03:08:08;97162.00;;;20.80
80496;BMP180;69819;48.798;11.770;2023-07-30T03:10:36;97160.00;;;20.70
80496;BMP180;69819;48.798;11.770;2023-07-30T03:13:02;97149.00;;;20.70
80496;BMP180;69819;48.798;11.770;2023-07-30T03:15:28;97132.00;;;20.70
80496;BMP180;69819;48.798;11.770;2023-07-30T03:17:54;97157.00;;;20.60
80496;BMP180;69819;48.798;11.770;2023-07-30T03:20:20;97157.00;;;20.50
80496;BMP180;69819;48.798;11.770;2023-07-30T03:22:46;97148.00;;;20.50
80496;BMP180;69819;48.798;11.770;2023-07-30T03:25:12;97147.00;;;20.40
80496;BMP180;69819;48.798;11.770;2023-07-30T03:27:38;97176.00;;;20.40
80496;BMP180;69819;48.798;11.770;2023-07-30T03:30:05;97167.00;;;20.30
80496;BMP180;69819;48.798;11.770;2023-07-30T03:32:31;97124.00;;;20.20
80496;BMP180;69819;48.798;11.770;2023-07-30T03:34:57;97151.00;;;20.20
80496;BMP180;69819;48.798;11.770;2023-07-30T03:37:23;97172.00;;;20.10
80496;BMP180;69819;48.798;11.770;2023-07-30T03:39:49;97160.00;;;20.00
80496;BMP180;69819;48.798;11.770;2023-07-30T03:42:14;97138.00;;;20.00
80496;BMP180;69819;48.798;11.770;2023-07-30T03:44:40;97163.00;;;19.90
80496;BMP180;69819;48.798;11.770;2023-07-30T03:47:06;97157.00;;;19.90
80496;BMP180;69819;48.798;11.770;2023-07-30T03:49:32;97157.00;;;19.80
80496;BMP180;69819;48.798;11.770;2023-07-30T03:51:59;97171.00;;;19.80
80496;BMP180;69819;48.798;11.770;2023-07-30T03:54:25;97183.00;;;19.70
80496;BMP180;69819;48.798;11.770;2023-07-30T03:56:51;97177.00;;;19.70
80496;BMP180;69819;48.798;11.770;2023-07-30T03:59:17;97183.00;;;19.60
80496;BMP180;69819;48.798;11.770;2023-07-30T04:01:43;97187.00;;;19.60
80496;BMP180;69819;48.798;11.770;2023-07-30T04:04:09;97169.00;;;19.60
80496;BMP180;69819;48.798;11.770;2023-07-30T04:06:35;97180.00;;;19.60
80496;BMP180;69819;48.798;11.770;2023-07-30T04:09:01;97176.00;;;19.60
80496;BMP180;69819;48.798;11.770;2023-07-30T04:11:27;97186.00;;;19.50
80496;BMP180;69819;48.798;11.770;2023-07-30T04:13:53;97190.00;;;19.50
80496;BMP180;69819;48.798;11.770;2023-07-30T04:16:19;97177.00;;;19.50
80496;BMP180;69819;48.798;11.770;2023-07-30T04:18:45;97190.00;;;19.50
80496;BMP180;69819;48.798;11.770;2023-07-30T04:21:11;97195.00;;;19.50
80496;BMP180;69819;48.798;11.770;2023-07-30T04:23:37;97183.00;;;19.20
80496;BMP180;69819;48.798;11.770;2023-07-30T04:26:03;97193.00;;;19.60
80496;BMP180;69819;48.798;11.770;2023-07-30T04:28:28;97186.00;;;19.60
80496;BMP180;69819;48.798;11.770;2023-07-30T04:30:54;97194.00;;;19.60
80496;BMP180;69819;48.798;11.770;2023-07-30T04:33:20;97146.00;;;19.60
80496;BMP180;69819;48.798;11.770;2023-07-30T04:35:46;97213.00;;;19.70
80496;BMP180;69819;48.798;11.770;2023-07-30T04:38:12;97199.00;;;19.80
80496;BMP180;69819;48.798;11.770;2023-07-30T04:40:39;97215.00;;;19.90
80496;BMP180;69819;48.798;11.770;2023-07-30T04:43:05;97215.00;;;20.00
80496;BMP180;69819;48.798;11.770;2023-07-30T04:45:30;97217.00;;;20.20
80496;BMP180;69819;48.798;11.770;2023-07-30T04:47:57;97216.00;;;20.30
80496;BMP180;69819;48.798;11.770;2023-07-30T04:50:23;97212.00;;;20.40
80496;BMP180;69819;48.798;11.770;2023-07-30T04:52:49;97223.00;;;20.50
80496;BMP180;69819;48.798;11.770;2023-07-30T04:55:14;97215.00;;;20.60
80496;BMP180;69819;48.798;11.770;2023-07-30T04:57:40;97219.00;;;20.70
80496;BMP180;69819;48.798;11.770;2023-07-30T05:00:07;97214.00;;;20.70
80496;BMP180;69819;48.798;11.770;2023-07-30T05:02:33;97214.00;;;20.80
80496;BMP180;69819;48.798;11.770;2023-07-30T05:04:59;97226.00;;;20.90
80496;BMP180;69819;48.798;11.770;2023-07-30T05:07:25;97217.00;;;20.90
80496;BMP180;69819;48.798;11.770;2023-07-30T05:09:50;97200.00;;;21.00
80496;BMP180;69819;48.798;11.770;2023-07-30T05:12:16;97224.00;;;21.00
80496;BMP180;69819;48.798;11.770;2023-07-30T05:14:42;97217.00;;;21.10
80496;BMP180;69819;48.798;11.770;2023-07-30T05:17:08;97232.00;;;21.10
80496;BMP180;69819;48.798;11.770;2023-07-30T05:19:34;97227.00;;;21.20
80496;BMP180;69819;48.798;11.770;2023-07-30T05:22:00;97234.00;;;21.30
80496;BMP180;69819;48.798;11.770;2023-07-30T05:24:27;97233.00;;;21.30
80496;BMP180;69819;48.798;11.770;2023-07-30T05:26:53;97253.00;;;21.40
80496;BMP180;69819;48.798;11.770;2023-07-30T05:29:19;97240.00;;;21.50
80496;BMP180;69819;48.798;11.770;2023-07-30T05:31:46;97231.00;;;21.50
80496;BMP180;69819;48.798;11.770;2023-07-30T05:34:12;97242.00;;;21.60
80496;BMP180;69819;48.798;11.770;2023-07-30T05:36:38;97253.00;;;21.70
80496;BMP180;69819;48.798;11.770;2023-07-30T05:39:04;97255.00;;;21.70
80496;BMP180;69819;48.798;11.770;2023-07-30T05:41:30;97189.00;;;21.80
80496;BMP180;69819;48.798;11.770;2023-07-30T05:43:55;97260.00;;;21.90
80496;BMP180;69819;48.798;11.770;2023-07-30T05:46:21;97259.00;;;22.00
80496;BMP180;69819;48.798;11.770;2023-07-30T05:48:47;97271.00;;;22.20
80496;BMP180;69819;48.798;11.770;2023-07-30T05:51:13;97256.00;;;22.40
80496;BMP180;69819;48.798;11.770;2023-07-30T05:53:39;97262.00;;;22.60
80496;BMP180;69819;48.798;11.770;2023-07-30T05:56:05;97267.00;;;22.70
80496;BMP180;69819;48.798;11.770;2023-07-30T05:58:31;97280.00;;;22.90
80496;BMP180;69819;48.798;11.770;2023-07-30T06:00:57;97257.00;;;23.00
80496;BMP180;69819;48.798;11.770;2023-07-30T06:03:23;97253.00;;;23.00
80496;BMP180;69819;48.798;11.770;2023-07-30T06:05:49;97288.00;;;23.10
80496;BMP180;69819;48.798;11.770;2023-07-30T06:08:14;97286.00;;;23.20
80496;BMP180;69819;48.798;11.770;2023-07-30T06:10:40;97283.00;;;23.20
80496;BMP180;69819;48.798;11.770;2023-07-30T06:13:06;97280.00;;;23.20
80496;BMP180;69819;48.798;11.770;2023-07-30T06:15:33;97277.00;;;23.30
80496;BMP180;69819;48.798;11.770;2023-07-30T06:18:01;97247.00;;;23.30
80496;BMP180;69819;48.798;11.770;2023-07-30T06:20:28;97286.00;;;23.40
80496;BMP180;69819;48.798;11.770;2023-07-30T06:22:54;97295.00;;;23.50
80496;BMP180;69819;48.798;11.770;2023-07-30T06:25:20;97284.00;;;23.60
80496;BMP180;69819;48.798;11.770;2023-07-30T06:27:46;97283.00;;;23.70
80496;BMP180;69819;48.798;11.770;2023-07-30T06:30:12;97233.00;;;23.90
80496;BMP180;69819;48.798;11.770;2023-07-30T06:32:38;97246.00;;;24.10
80496;BMP180;69819;48.798;11.770;2023-07-30T06:35:04;97278.00;;;24.40
80496;BMP180;69819;48.798;11.770;2023-07-30T06:37:30;97295.00;;;24.80
80496;BMP180;69819;48.798;11.770;2023-07-30T06:39:56;97266.00;;;25.30
80496;BMP180;69819;48.798;11.770;2023-07-30T06:42:22;97301.00;;;25.80
80496;BMP180;69819;48.798;11.770;2023-07-30T06:44:48;97298.00;;;26.40
80496;BMP180;69819;48.798;11.770;2023-07-30T06:47:13;97268.00;;;26.80
80496;BMP180;69819;48.798;11.770;2023-07-30T06:49:39;97293.00;;;27.20
80496;BMP180;69819;48.798;11.770;2023-07-30T06:52:06;97278.00;;;27.50
80496;BMP180;69819;48.798;11.770;2023-07-30T06:54:32;97278.00;;;27.80
80496;BMP180;69819;48.798;11.770;2023-07-30T06:56:58;97306.00;;;28.10
80496;BMP180;69819;48.798;11.770;2023-07-30T06:59:23;97309.00;;;28.40
80496;BMP180;69819;48.798;11.770;2023-07-30T07:01:49;97310.00;;;28.70
80496;BMP180;69819;48.798;11.770;2023-07-30T07:04:15;97311.00;;;28.90
80496;BMP180;69819;48.798;11.770;2023-07-30T07:06:41;97311.00;;;29.10
80496;BMP180;69819;48.798;11.770;2023-07-30T07:09:07;97308.00;;;29.30
80496;BMP180;69819;48.798;11.770;2023-07-30T07:11:33;97319.00;;;29.30
80496;BMP180;69819;48.798;11.770;2023-07-30T07:13:59;97310.00;;;29.50
80496;BMP180;69819;48.798;11.770;2023-07-30T07:16:24;97314.00;;;29.80
80496;BMP180;69819;48.798;11.770;2023-07-30T07:18:51;97316.00;;;30.40
80496;BMP180;69819;48.798;11.770;2023-07-30T07:21:17;97302.00;;;31.00
80496;BMP180;69819;48.798;11.770;2023-07-30T07:23:42;97311.00;;;31.70
80496;BMP180;69819;48.798;11.770;2023-07-30T07:26:08;97309.00;;;32.40
80496;BMP180;69819;48.798;11.770;2023-07-30T07:28:34;97312.00;;;33.10
80496;BMP180;69819;48.798;11.770;2023-07-30T07:31:00;97294.00;;;33.70
80496;BMP180;69819;48.798;11.770;2023-07-30T07:33:27;97310.00;;;34.10
80496;BMP180;69819;48.798;11.770;2023-07-30T07:36:06;97313.00;;;34.30
80496;BMP180;69819;48.798;11.770;2023-07-30T07:38:33;97299.00;;;34.40
80496;BMP180;69819;48.798;11.770;2023-07-30T07:41:00;97327.00;;;34.40
80496;BMP180;69819;48.798;11.770;2023-07-30T07:43:27;97318.00;;;34.30
80496;BMP180;69819;48.798;11.770;2023-07-30T07:45:53;97323.00;;;34.30
80496;BMP180;69819;48.798;11.770;2023-07-30T07:48:19;97325.00;;;34.50
80496;BMP180;69819;48.798;11.770;2023-07-30T07:50:45;97329.00;;;34.70
80496;BMP180;69819;48.798;11.770;2023-07-30T07:53:11;97331.00;;;34.80
80496;BMP180;69819;48.798;11.770;2023-07-30T07:55:37;97322.00;;;34.90
80496;BMP180;69819;48.798;11.770;2023-07-30T07:58:03;97316.00;;;34.70
80496;BMP180;69819;48.798;11.770;2023-07-30T08:00:29;97315.00;;;34.50
80496;BMP180;69819;48.798;11.770;2023-07-30T08:02:55;97313.00;;;34.30
80496;BMP180;69819;48.798;11.770;2023-07-30T08:05:20;97329.00;;;34.00
80496;BMP180;69819;48.798;11.770;2023-07-30T08:07:47;97332.00;;;33.70
80496;BMP180;69819;48.798;11.770;2023-07-30T08:10:13;97329.00;;;33.30
80496;BMP180;69819;48.798;11.770;2023-07-30T08:12:39;97330.00;;;33.00
80496;BMP180;69819;48.798;11.770;2023-07-30T08:15:05;97328.00;;;32.60
80496;BMP180;69819;48.798;11.770;2023-07-30T08:17:31;97323.00;;;32.20
80496;BMP180;69819;48.798;11.770;2023-07-30T08:19:57;97329.00;;;31.90
80496;BMP180;69819;48.798;11.770;2023-07-30T08:22:23;97332.00;;;31.70
80496;BMP180;69819;48.798;11.770;2023-07-30T08:24:49;97335.00;;;31.40
80496;BMP180;69819;48.798;11.770;2023-07-30T08:27:15;97308.00;;;31.30
80496;BMP180;69819;48.798;11.770;2023-07-30T08:29:41;97316.00;;;31.20
80496;BMP180;69819;48.798;11.770;2023-07-30T08:32:07;97321.00;;;31.20
80496;BMP180;69819;48.798;11.770;2023-07-30T08:34:33;97309.00;;;31.20
80496;BMP180;69819;48.798;11.770;2023-07-30T08:36:58;97322.00;;;31.40
80496;BMP180;69819;48.798;11.770;2023-07-30T08:39:24;97326.00;;;31.80
80496;BMP180;69819;48.798;11.770;2023-07-30T08:41:50;97332.00;;;32.20
80496;BMP180;69819;48.798;11.770;2023-07-30T08:44:16;97315.00;;;32.80
80496;BMP180;69819;48.798;11.770;2023-07-30T08:46:42;97321.00;;;33.30
80496;BMP180;69819;48.798;11.770;2023-07-30T08:49:08;97319.00;;;33.70
80496;BMP180;69819;48.798;11.770;2023-07-30T08:51:36;97310.00;;;34.00
80496;BMP180;69819;48.798;11.770;2023-07-30T08:54:06;97308.00;;;34.20
80496;BMP180;69819;48.798;11.770;2023-07-30T08:56:32;97307.00;;;34.20
80496;BMP180;69819;48.798;11.770;2023-07-30T08:59:03;97306.00;;;34.00
80496;BMP180;69819;48.798;11.770;2023-07-30T09:01:38;97307.00;;;33.70
80496;BMP180;69819;48.798;11.770;2023-07-30T09:04:06;97310.00;;;33.40
80496;BMP180;69819;48.798;11.770;2023-07-30T09:06:32;97296.00;;;33.00
80496;BMP180;69819;48.798;11.770;2023-07-30T09:08:58;97296.00;;;32.60
80496;BMP180;69819;48.798;11.770;2023-07-30T09:11:27;97276.00;;;32.10
80496;BMP180;69819;48.798;11.770;2023-07-30T09:13:54;97285.00;;;31.70
80496;BMP180;69819;48.798;11.770;2023-07-30T09:16:25;97284.00;;;31.60
80496;BMP180;69819;48.798;11.770;2023-07-30T09:18:52;97245.00;;;31.70
80496;BMP180;69819;48.798;11.770;2023-07-30T09:21:28;97295.00;;;32.00
80496;BMP180;69819;48.798;11.770;2023-07-30T09:23:54;97290.00;;;32.20
80496;BMP180;69819;48.798;11.770;2023-07-30T09:26:20;97268.00;;;32.50
80496;BMP180;69819;48.798;11.770;2023-07-30T09:28:47;97272.00;;;32.70
80496;BMP180;69819;48.798;11.770;2023-07-30T09:31:13;97281.00;;;32.90
80496;BMP180;69819;48.798;11.770;2023-07-30T09:33:42;97271.00;;;32.90
80496;BMP180;69819;48.798;11.770;2023-07-30T09:36:09;97293.00;;;32.90
80496;BMP180;69819;48.798;11.770;2023-07-30T09:38:44;97287.00;;;32.70
80496;BMP180;69819;48.798;11.770;2023-07-30T09:41:12;97289.00;;;32.60
80496;BMP180;69819;48.798;11.770;2023-07-30T09:43:38;97280.00;;;32.50
80496;BMP180;69819;48.798;11.770;2023-07-30T09:46:07;97268.00;;;32.50
80496;BMP180;69819;48.798;11.770;2023-07-30T09:48:37;97276.00;;;32.70
80496;BMP180;69819;48.798;11.770;2023-07-30T09:51:04;97271.00;;;32.90
80496;BMP180;69819;48.798;11.770;2023-07-30T09:53:32;97273.00;;;33.20
80496;BMP180;69819;48.798;11.770;2023-07-30T09:56:05;97264.00;;;33.40
80496;BMP180;69819;48.798;11.770;2023-07-30T09:58:34;97289.00;;;33.60
80496;BMP180;69819;48.798;11.770;2023-07-30T10:01:04;97281.00;;;33.50
80496;BMP180;69819;48.798;11.770;2023-07-30T10:03:35;97297.00;;;33.30
80496;BMP180;69819;48.798;11.770;2023-07-30T10:06:05;97297.00;;;33.10
80496;BMP180;69819;48.798;11.770;2023-07-30T10:08:37;97293.00;;;32.80
80496;BMP180;69819;48.798;11.770;2023-07-30T10:11:08;97287.00;;;32.40
80496;BMP180;69819;48.798;11.770;2023-07-30T10:13:37;97274.00;;;32.10
80496;BMP180;69819;48.798;11.770;2023-07-30T10:16:10;97297.00;;;31.90
80496;BMP180;69819;48.798;11.770;2023-07-30T10:18:42;97301.00;;;31.80
80496;BMP180;69819;48.798;11.770;2023-07-30T10:21:10;97282.00;;;31.70
80496;BMP180;69819;48.798;11.770;2023-07-30T10:23:46;97292.00;;;31.50
80496;BMP180;69819;48.798;11.770;2023-07-30T10:26:12;97287.00;;;31.60
80496;BMP180;69819;48.798;11.770;2023-07-30T10:28:38;97299.00;;;31.50
80496;BMP180;69819;48.798;11.770;2023-07-30T10:31:10;97284.00;;;31.20
80496;BMP180;69819;48.798;11.770;2023-07-30T10:33:52;97283.00;;;31.00
80496;BMP180;69819;48.798;11.770;2023-07-30T10:36:47;97297.00;;;30.70
80496;BMP180;69819;48.798;11.770;2023-07-30T10:39:34;97291.00;;;30.50
80496;BMP180;69819;48.798;11.770;2023-07-30T10:42:01;97289.00;;;30.40
80496;BMP180;69819;48.798;11.770;2023-07-30T10:44:29;97282.00;;;30.30
80496;BMP180;69819;48.798;11.770;2023-07-30T10:46:58;97283.00;;;30.30
80496;BMP180;69819;48.798;11.770;2023-07-30T10:49:25;97290.00;;;30.30
80496;BMP180;69819;48.798;11.770;2023-07-30T10:51:53;97291.00;;;30.30
80496;BMP180;69819;48.798;11.770;2023-07-30T10:54:20;97269.00;;;30.30
80496;BMP180;69819;48.798;11.770;2023-07-30T10:56:46;97296.00;;;30.40
80496;BMP180;69819;48.798;11.770;2023-07-30T10:59:13;97301.00;;;30.40
80496;BMP180;69819;48.798;11.770;2023-07-30T11:01:43;97281.00;;;30.30
80496;BMP180;69819;48.798;11.770;2023-07-30T11:04:14;97313.00;;;30.30
80496;BMP180;69819;48.798;11.770;2023-07-30T11:06:46;97290.00;;;30.30
80496;BMP180;69819;48.798;11.770;2023-07-30T11:09:21;97314.00;;;30.10
80496;BMP180;69819;48.798;11.770;2023-07-30T11:11:48;97303.00;;;30.10
80496;BMP180;69819;48.798;11.770;2023-07-30T11:14:21;97302.00;;;29.90
80496;BMP180;69819;48.798;11.770;2023-07-30T11:16:52;97287.00;;;29.80
80496;BMP180;69819;48.798;11.770;2023-07-30T11:19:19;97292.00;;;29.70
80496;BMP180;69819;48.798;11.770;2023-07-30T11:21:50;97295.00;;;29.60
80496;BMP180;69819;48.798;11.770;2023-07-30T11:24:16;97281.00;;;29.50
80496;BMP180;69819;48.798;11.770;2023-07-30T11:26:43;97296.00;;;29.40
80496;BMP180;69819;48.798;11.770;2023-07-30T11:29:19;97294.00;;;29.30
80496;BMP180;69819;48.798;11.770;2023-07-30T11:31:47;97314.00;;;29.30
80496;BMP180;69819;48.798;11.770;2023-07-30T11:34:14;97255.00;;;29.30
80496;BMP180;69819;48.798;11.770;2023-07-30T11:36:42;97316.00;;;29.30
80496;BMP180;69819;48.798;11.770;2023-07-30T11:39:10;97321.00;;;29.30
80496;BMP180;69819;48.798;11.770;2023-07-30T11:41:38;97321.00;;;29.30
80496;BMP180;69819;48.798;11.770;2023-07-30T11:44:04;97315.00;;;29.20
80496;BMP180;69819;48.798;11.770;2023-07-30T11:46:30;97315.00;;;29.30
80496;BMP180;69819;48.798;11.770;2023-07-30T11:49:16;97322.00;;;29.20
80496;BMP180;69819;48.798;11.770;2023-07-30T11:51:46;97337.00;;;29.30
80496;BMP180;69819;48.798;11.770;2023-07-30T11:54:22;97324.00;;;29.30
80496;BMP180;69819;48.798;11.770;2023-07-30T11:56:55;97328.00;;;29.30
80496;BMP180;69819;48.798;11.770;2023-07-30T11:59:21;97329.00;;;29.40
80496;BMP180;69819;48.798;11.770;2023-07-30T12:01:48;97319.00;;;29.50
80496;BMP180;69819;48.798;11.770;2023-07-30T12:04:14;97324.00;;;29.60
80496;BMP180;69819;48.798;11.770;2023-07-30T12:06:50;97319.00;;;29.60
80496;BMP180;69819;48.798;11.770;2023-07-30T12:09:22;97326.00;;;29.60
80496;BMP180;69819;48.798;11.770;2023-07-30T12:12:00;97318.00;;;29.60
80496;BMP180;69819;48.798;11.770;2023-07-30T12:14:54;97343.00;;;29.50
80496;BMP180;69819;48.798;11.770;2023-07-30T12:17:20;97328.00;;;29.60
80496;BMP180;69819;48.798;11.770;2023-07-30T12:19:47;97337.00;;;29.60
80496;BMP180;69819;48.798;11.770;2023-07-30T12:22:13;97330.00;;;29.60
80496;BMP180;69819;48.798;11.770;2023-07-30T12:24:40;97340.00;;;29.70
80496;BMP180;69819;48.798;11.770;2023-07-30T12:27:06;97350.00;;;29.70
80496;BMP180;69819;48.798;11.770;2023-07-30T12:29:32;97350.00;;;29.80
80496;BMP180;69819;48.798;11.770;2023-07-30T12:31:58;97339.00;;;29.80
80496;BMP180;69819;48.798;11.770;2023-07-30T12:34:24;97321.00;;;29.80
80496;BMP180;69819;48.798;11.770;2023-07-30T12:36:50;97341.00;;;29.80
80496;BMP180;69819;48.798;11.770;2023-07-30T12:39:16;97339.00;;;29.80
80496;BMP180;69819;48.798;11.770;2023-07-30T12:41:42;97347.00;;;29.70
80496;BMP180;69819;48.798;11.770;2023-07-30T12:44:08;97337.00;;;29.60
80496;BMP180;69819;48.798;11.770;2023-07-30T12:46:35;97341.00;;;29.60
80496;BMP180;69819;48.798;11.770;2023-07-30T12:49:01;97346.00;;;29.60
80496;BMP180;69819;48.798;11.770;2023-07-30T12:51:30;97340.00;;;29.60
80496;BMP180;69819;48.798;11.770;2023-07-30T12:53:56;97346.00;;;29.50
80496;BMP180;69819;48.798;11.770;2023-07-30T12:56:22;97354.00;;;29.50
80496;BMP180;69819;48.798;11.770;2023-07-30T12:58:48;97349.00;;;29.60
80496;BMP180;69819;48.798;11.770;2023-07-30T13:01:14;97351.00;;;29.60
80496;BMP180;69819;48.798;11.770;2023-07-30T13:03:40;97359.00;;;29.60
80496;BMP180;69819;48.798;11.770;2023-07-30T13:06:11;97337.00;;;29.60
80496;BMP180;69819;48.798;11.770;2023-07-30T13:08:39;97371.00;;;29.60
80496;BMP180;69819;48.798;11.770;2023-07-30T13:11:06;97374.00;;;29.60
80496;BMP180;69819;48.798;11.770;2023-07-30T13:13:32;97352.00;;;29.70
80496;BMP180;69819;48.798;11.770;2023-07-30T13:15:58;97374.00;;;29.70
80496;BMP180;69819;48.798;11.770;2023-07-30T13:18:27;97373.00;;;29.60
80496;BMP180;69819;48.798;11.770;2023-07-30T13:20:53;97366.00;;;29.60
80496;BMP180;69819;48.798;11.770;2023-07-30T13:23:19;97380.00;;;29.60
80496;BMP180;69819;48.798;11.770;2023-07-30T13:25:45;97364.00;;;29.60
80496;BMP180;69819;48.798;11.770;2023-07-30T13:28:11;97385.00;;;29.60
80496;BMP180;69819;48.798;11.770;2023-07-30T13:30:37;97376.00;;;29.50
80496;BMP180;69819;48.798;11.770;2023-07-30T13:33:03;97354.00;;;29.50
80496;BMP180;69819;48.798;11.770;2023-07-30T13:35:29;97368.00;;;29.60
80496;BMP180;69819;48.798;11.770;2023-07-30T13:37:55;97368.00;;;29.60
80496;BMP180;69819;48.798;11.770;2023-07-30T13:40:22;97376.00;;;29.70
80496;BMP180;69819;48.798;11.770;2023-07-30T13:42:48;97359.00;;;29.70
80496;BMP180;69819;48.798;11.770;2023-07-30T13:45:14;97375.00;;;29.80
80496;BMP180;69819;48.798;11.770;2023-07-30T13:47:39;97371.00;;;29.80
80496;BMP180;69819;48.798;11.770;2023-07-30T13:50:07;97367.00;;;29.90
80496;BMP180;69819;48.798;11.770;2023-07-30T13:52:33;97306.00;;;29.90
80496;BMP180;69819;48.798;11.770;2023-07-30T13:54:59;97350.00;;;29.90
80496;BMP180;69819;48.798;11.770;2023-07-30T13:57:25;97350.00;;;29.90
80496;BMP180;69819;48.798;11.770;2023-07-30T13:59:52;97331.00;;;29.90
80496;BMP180;69819;48.798;11.770;2023-07-30T14:02:19;97340.00;;;29.80